sensor_id;sensor_type;location;lat;lon;timestamp;P1;durP1;ratioP1;P2;durP2;ratioP2
6739;SDS011;3407;49.882;10.920;2022-12-05T00:01:44;26.83;;;15.80;;
6739;SDS011;3407;49.882;10.920;2022-12-05T00:06:40;25.07;;;16.20;;
6739;SDS011;3407;49.882;10.920;2022-12-05T00:11:37;30.63;;;15.77;;
6739;SDS011;3407;49.882;10.920;2022-12-05T00:16:36;24.33;;;14.90;;
6739;SDS011;3407;49.882;10.920;2022-12-05T00:21:33;28.27;;;16.80;;
6739;SDS011;3407;49.882;10.920;2022-12-05T00:26:30;28.07;;;16.60;;
6739;SDS011;3407;49.882;10.920;2022-12-05T00:31:27;31.73;;;16.83;;
6739;SDS011;3407;49.882;10.920;2022-12-05T00:36:23;33.37;;;16.70;;
6739;SDS011;3407;49.882;10.920;2022-12-05T00:41:22;32.30;;;17.27;;
6739;SDS011;3407;49.882;10.920;2022-12-05T00:46:20;27.43;;;16.43;;
6739;SDS011;3407;49.882;10.920;2022-12-05T00:51:18;25.23;;;15.80;;
6739;SDS011;3407;49.882;10.920;2022-12-05T00:56:17;27.33;;;15.57;;
6739;SDS011;3407;49.882;10.920;2022-12-05T01:01:23;26.20;;;16.77;;
6739;SDS011;3407;49.882;10.920;2022-12-05T01:06:21;32.23;;;16.57;;
6739;SDS011;3407;49.882;10.920;2022-12-05T01:11:17;30.83;;;16.53;;
6739;SDS011;3407;49.882;10.920;2022-12-05T01:16:15;28.83;;;15.70;;
6739;SDS011;3407;49.882;10.920;2022-12-05T01:21:16;26.77;;;16.60;;
6739;SDS011;3407;49.882;10.920;2022-12-05T01:26:13;31.57;;;18.30;;
6739;SDS011;3407;49.882;10.920;2022-12-05T01:31:21;26.13;;;15.97;;
6739;SDS011;3407;49.882;10.920;2022-12-05T01:36:24;33.80;;;19.03;;
6739;SDS011;3407;49.882;10.920;2022-12-05T01:41:22;30.87;;;18.07;;
6739;SDS011;3407;49.882;10.920;2022-12-05T01:46:20;34.83;;;18.43;;
6739;SDS011;3407;49.882;10.920;2022-12-05T01:51:15;30.00;;;16.33;;
6739;SDS011;3407;49.882;10.920;2022-12-05T01:56:11;28.83;;;16.30;;
6739;SDS011;3407;49.882;10.920;2022-12-05T02:01:07;28.70;;;16.47;;
6739;SDS011;3407;49.882;10.920;2022-12-05T02:06:03;31.63;;;16.80;;
6739;SDS011;3407;49.882;10.920;2022-12-05T02:10:59;28.10;;;16.63;;
6739;SDS011;3407;49.882;10.920;2022-12-05T02:31:31;33.67;;;17.47;;
6739;SDS011;3407;49.882;10.920;2022-12-05T02:42:21;29.53;;;16.43;;
6739;SDS011;3407;49.882;10.920;2022-12-05T02:47:32;29.43;;;16.60;;
6739;SDS011;3407;49.882;10.920;2022-12-05T02:52:31;31.77;;;16.20;;
6739;SDS011;3407;49.882;10.920;2022-12-05T02:57:28;31.63;;;17.23;;
6739;SDS011;3407;49.882;10.920;2022-12-05T03:02:26;29.80;;;18.77;;
6739;SDS011;3407;49.882;10.920;2022-12-05T03:07:26;33.83;;;17.13;;
6739;SDS011;3407;49.882;10.920;2022-12-05T03:12:24;29.77;;;16.87;;
6739;SDS011;3407;49.882;10.920;2022-12-05T03:17:24;29.10;;;16.97;;
6739;SDS011;3407;49.882;10.920;2022-12-05T03:22:26;29.73;;;17.53;;
6739;SDS011;3407;49.882;10.920;2022-12-05T03:32:41;33.13;;;17.20;;
6739;SDS011;3407;49.882;10.920;2022-12-05T03:37:54;24.87;;;15.17;;
6739;SDS011;3407;49.882;10.920;2022-12-05T03:43:09;27.57;;;15.67;;
6739;SDS011;3407;49.882;10.920;2022-12-05T03:48:52;24.37;;;14.57;;
6739;SDS011;3407;49.882;10.920;2022-12-05T03:53:34;25.83;;;14.37;;
6739;SDS011;3407;49.882;10.920;2022-12-05T03:58:43;28.30;;;16.53;;
6739;SDS011;3407;49.882;10.920;2022-12-05T04:03:54;28.30;;;16.03;;
6739;SDS011;3407;49.882;10.920;2022-12-05T04:09:04;29.37;;;14.77;;
6739;SDS011;3407;49.882;10.920;2022-12-05T04:14:14;26.90;;;15.60;;
6739;SDS011;3407;49.882;10.920;2022-12-05T04:19:22;30.40;;;14.40;;
6739;SDS011;3407;49.882;10.920;2022-12-05T04:24:50;29.87;;;15.37;;
6739;SDS011;3407;49.882;10.920;2022-12-05T04:30:08;23.80;;;13.47;;
6739;SDS011;3407;49.882;10.920;2022-12-05T04:35:08;23.37;;;13.40;;
6739;SDS011;3407;49.882;10.920;2022-12-05T04:40:17;21.53;;;12.63;;
6739;SDS011;3407;49.882;10.920;2022-12-05T04:45:17;14.20;;;9.80;;
6739;SDS011;3407;49.882;10.920;2022-12-05T04:50:15;17.03;;;10.93;;
6739;SDS011;3407;49.882;10.920;2022-12-05T04:55:12;17.97;;;11.37;;
6739;SDS011;3407;49.882;10.920;2022-12-05T05:00:14;19.07;;;11.97;;
6739;SDS011;3407;49.882;10.920;2022-12-05T05:05:10;19.10;;;11.13;;
6739;SDS011;3407;49.882;10.920;2022-12-05T05:10:10;15.83;;;10.77;;
6739;SDS011;3407;49.882;10.920;2022-12-05T05:15:08;17.63;;;10.00;;
6739;SDS011;3407;49.882;10.920;2022-12-05T05:20:04;17.03;;;11.07;;
6739;SDS011;3407;49.882;10.920;2022-12-05T05:25:18;19.87;;;11.60;;
6739;SDS011;3407;49.882;10.920;2022-12-05T05:30:15;17.93;;;9.90;;
6739;SDS011;3407;49.882;10.920;2022-12-05T05:35:11;16.97;;;10.43;;
6739;SDS011;3407;49.882;10.920;2022-12-05T05:40:08;22.53;;;11.23;;
6739;SDS011;3407;49.882;10.920;2022-12-05T05:45:05;20.37;;;11.63;;
6739;SDS011;3407;49.882;10.920;2022-12-05T05:50:01;20.77;;;11.07;;
6739;SDS011;3407;49.882;10.920;2022-12-05T05:54:57;17.93;;;9.73;;
6739;SDS011;3407;49.882;10.920;2022-12-05T05:59:53;23.03;;;12.23;;
6739;SDS011;3407;49.882;10.920;2022-12-05T06:04:48;24.50;;;12.43;;
6739;SDS011;3407;49.882;10.920;2022-12-05T06:09:44;20.47;;;11.47;;
6739;SDS011;3407;49.882;10.920;2022-12-05T06:14:39;19.87;;;12.53;;
6739;SDS011;3407;49.882;10.920;2022-12-05T06:19:35;22.07;;;10.97;;
6739;SDS011;3407;49.882;10.920;2022-12-05T06:24:31;19.70;;;11.00;;
6739;SDS011;3407;49.882;10.920;2022-12-05T06:29:26;21.40;;;10.40;;
6739;SDS011;3407;49.882;10.920;2022-12-05T06:34:22;20.43;;;10.87;;
6739;SDS011;3407;49.882;10.920;2022-12-05T06:39:17;17.83;;;10.73;;
6739;SDS011;3407;49.882;10.920;2022-12-05T06:44:13;14.33;;;8.63;;
6739;SDS011;3407;49.882;10.920;2022-12-05T06:49:08;14.57;;;9.47;;
6739;SDS011;3407;49.882;10.920;2022-12-05T06:54:04;15.27;;;9.80;;
6739;SDS011;3407;49.882;10.920;2022-12-05T06:59:00;13.67;;;9.13;;
6739;SDS011;3407;49.882;10.920;2022-12-05T07:03:55;15.80;;;9.03;;
6739;SDS011;3407;49.882;10.920;2022-12-05T07:08:51;14.43;;;9.30;;
6739;SDS011;3407;49.882;10.920;2022-12-05T07:13:47;15.67;;;9.70;;
6739;SDS011;3407;49.882;10.920;2022-12-05T07:18:42;15.40;;;9.20;;
6739;SDS011;3407;49.882;10.920;2022-12-05T07:23:38;12.57;;;8.83;;
6739;SDS011;3407;49.882;10.920;2022-12-05T07:28:35;14.03;;;8.93;;
6739;SDS011;3407;49.882;10.920;2022-12-05T07:33:30;15.83;;;9.10;;
6739;SDS011;3407;49.882;10.920;2022-12-05T07:38:26;12.67;;;9.07;;
6739;SDS011;3407;49.882;10.920;2022-12-05T07:43:22;13.50;;;8.57;;
6739;SDS011;3407;49.882;10.920;2022-12-05T07:48:18;13.60;;;8.30;;
6739;SDS011;3407;49.882;10.920;2022-12-05T07:53:13;13.30;;;9.03;;
6739;SDS011;3407;49.882;10.920;2022-12-05T07:58:09;11.70;;;8.57;;
6739;SDS011;3407;49.882;10.920;2022-12-05T08:03:04;11.83;;;8.13;;
6739;SDS011;3407;49.882;10.920;2022-12-05T08:08:00;11.90;;;7.70;;
6739;SDS011;3407;49.882;10.920;2022-12-05T08:12:55;11.70;;;7.93;;
6739;SDS011;3407;49.882;10.920;2022-12-05T08:17:51;13.83;;;8.50;;
6739;SDS011;3407;49.882;10.920;2022-12-05T08:22:46;12.13;;;8.47;;
6739;SDS011;3407;49.882;10.920;2022-12-05T08:27:45;11.03;;;7.83;;
6739;SDS011;3407;49.882;10.920;2022-12-05T08:32:40;12.73;;;7.90;;
6739;SDS011;3407;49.882;10.920;2022-12-05T08:37:36;14.40;;;7.93;;
6739;SDS011;3407;49.882;10.920;2022-12-05T08:42:31;14.10;;;8.63;;
6739;SDS011;3407;49.882;10.920;2022-12-05T08:47:27;12.13;;;7.97;;
6739;SDS011;3407;49.882;10.920;2022-12-05T08:52:22;10.93;;;8.33;;
6739;SDS011;3407;49.882;10.920;2022-12-05T08:57:18;11.37;;;7.93;;
6739;SDS011;3407;49.882;10.920;2022-12-05T09:02:13;11.50;;;7.97;;
6739;SDS011;3407;49.882;10.920;2022-12-05T09:07:09;16.37;;;9.77;;
6739;SDS011;3407;49.882;10.920;2022-12-05T09:12:04;14.60;;;9.67;;
6739;SDS011;3407;49.882;10.920;2022-12-05T09:17:00;17.23;;;10.80;;
6739;SDS011;3407;49.882;10.920;2022-12-05T09:21:56;21.27;;;11.07;;
6739;SDS011;3407;49.882;10.920;2022-12-05T09:26:52;21.60;;;10.70;;
6739;SDS011;3407;49.882;10.920;2022-12-05T09:31:47;19.43;;;11.30;;
6739;SDS011;3407;49.882;10.920;2022-12-05T09:36:45;18.77;;;10.20;;
6739;SDS011;3407;49.882;10.920;2022-12-05T09:47:03;19.70;;;11.27;;
6739;SDS011;3407;49.882;10.920;2022-12-05T09:52:17;17.43;;;11.67;;
6739;SDS011;3407;49.882;10.920;2022-12-05T09:57:38;19.87;;;10.50;;
6739;SDS011;3407;49.882;10.920;2022-12-05T10:02:58;18.37;;;9.23;;
6739;SDS011;3407;49.882;10.920;2022-12-05T10:08:20;15.83;;;9.73;;
6739;SDS011;3407;49.882;10.920;2022-12-05T10:13:59;19.03;;;11.03;;
6739;SDS011;3407;49.882;10.920;2022-12-05T10:19:21;18.53;;;10.53;;
6739;SDS011;3407;49.882;10.920;2022-12-05T10:29:44;20.83;;;10.47;;
6739;SDS011;3407;49.882;10.920;2022-12-05T10:34:47;19.00;;;10.47;;
6739;SDS011;3407;49.882;10.920;2022-12-05T10:39:45;16.80;;;8.80;;
6739;SDS011;3407;49.882;10.920;2022-12-05T10:44:42;17.87;;;9.70;;
6739;SDS011;3407;49.882;10.920;2022-12-05T10:49:41;19.43;;;11.17;;
6739;SDS011;3407;49.882;10.920;2022-12-05T10:54:44;19.67;;;9.93;;
6739;SDS011;3407;49.882;10.920;2022-12-05T10:59:44;21.70;;;9.77;;
6739;SDS011;3407;49.882;10.920;2022-12-05T11:04:41;17.07;;;9.30;;
6739;SDS011;3407;49.882;10.920;2022-12-05T11:09:39;17.80;;;10.87;;
6739;SDS011;3407;49.882;10.920;2022-12-05T11:15:01;18.73;;;9.67;;
6739;SDS011;3407;49.882;10.920;2022-12-05T11:25:29;17.73;;;10.87;;
6739;SDS011;3407;49.882;10.920;2022-12-05T11:30:28;17.90;;;11.13;;
6739;SDS011;3407;49.882;10.920;2022-12-05T11:35:25;21.40;;;10.63;;
6739;SDS011;3407;49.882;10.920;2022-12-05T11:40:27;16.07;;;10.50;;
6739;SDS011;3407;49.882;10.920;2022-12-05T11:45:48;14.47;;;9.73;;
6739;SDS011;3407;49.882;10.920;2022-12-05T11:51:27;21.67;;;11.37;;
6739;SDS011;3407;49.882;10.920;2022-12-05T11:56:38;21.60;;;11.17;;
6739;SDS011;3407;49.882;10.920;2022-12-05T12:07:02;21.07;;;11.67;;
6739;SDS011;3407;49.882;10.920;2022-12-05T12:33:18;21.10;;;11.70;;
6739;SDS011;3407;49.882;10.920;2022-12-05T12:44:01;19.83;;;11.33;;
6739;SDS011;3407;49.882;10.920;2022-12-05T12:49:18;18.93;;;12.07;;
6739;SDS011;3407;49.882;10.920;2022-12-05T13:10:30;23.87;;;12.60;;
6739;SDS011;3407;49.882;10.920;2022-12-05T13:15:39;20.57;;;12.00;;
6739;SDS011;3407;49.882;10.920;2022-12-05T13:20:38;15.83;;;10.07;;
6739;SDS011;3407;49.882;10.920;2022-12-05T13:25:35;21.77;;;12.23;;
6739;SDS011;3407;49.882;10.920;2022-12-05T13:30:33;18.60;;;10.53;;
6739;SDS011;3407;49.882;10.920;2022-12-05T13:35:49;18.10;;;11.23;;
6739;SDS011;3407;49.882;10.920;2022-12-05T13:41:07;18.30;;;11.53;;
6739;SDS011;3407;49.882;10.920;2022-12-05T13:46:25;22.53;;;12.23;;
6739;SDS011;3407;49.882;10.920;2022-12-05T13:51:29;19.33;;;12.53;;
6739;SDS011;3407;49.882;10.920;2022-12-05T13:56:26;17.20;;;11.03;;
6739;SDS011;3407;49.882;10.920;2022-12-05T14:01:41;17.47;;;10.43;;
6739;SDS011;3407;49.882;10.920;2022-12-05T14:06:54;17.27;;;10.47;;
6739;SDS011;3407;49.882;10.920;2022-12-05T14:17:06;18.57;;;10.47;;
6739;SDS011;3407;49.882;10.920;2022-12-05T14:22:06;19.20;;;10.43;;
6739;SDS011;3407;49.882;10.920;2022-12-05T14:32:37;18.63;;;9.77;;
6739;SDS011;3407;49.882;10.920;2022-12-05T14:37:40;18.87;;;10.37;;
6739;SDS011;3407;49.882;10.920;2022-12-05T14:47:54;18.60;;;10.90;;
6739;SDS011;3407;49.882;10.920;2022-12-05T15:04:18;16.13;;;9.27;;
6739;SDS011;3407;49.882;10.920;2022-12-05T15:09:06;17.43;;;10.53;;
6739;SDS011;3407;49.882;10.920;2022-12-05T15:14:08;18.17;;;10.17;;
6739;SDS011;3407;49.882;10.920;2022-12-05T15:19:16;17.00;;;10.37;;
6739;SDS011;3407;49.882;10.920;2022-12-05T15:24:17;14.80;;;10.00;;
6739;SDS011;3407;49.882;10.920;2022-12-05T15:39:48;19.13;;;10.90;;
6739;SDS011;3407;49.882;10.920;2022-12-05T15:44:50;17.53;;;9.47;;
6739;SDS011;3407;49.882;10.920;2022-12-05T15:49:45;18.77;;;12.20;;
6739;SDS011;3407;49.882;10.920;2022-12-05T15:54:42;23.20;;;14.60;;
6739;SDS011;3407;49.882;10.920;2022-12-05T15:59:39;17.00;;;10.87;;
6739;SDS011;3407;49.882;10.920;2022-12-05T16:04:45;16.40;;;9.90;;
6739;SDS011;3407;49.882;10.920;2022-12-05T16:09:54;16.60;;;10.40;;
6739;SDS011;3407;49.882;10.920;2022-12-05T16:14:53;14.00;;;8.93;;
6739;SDS011;3407;49.882;10.920;2022-12-05T16:19:51;14.50;;;9.50;;
6739;SDS011;3407;49.882;10.920;2022-12-05T16:30:07;16.37;;;10.53;;
6739;SDS011;3407;49.882;10.920;2022-12-05T16:40:22;16.50;;;9.97;;
6739;SDS011;3407;49.882;10.920;2022-12-05T16:45:35;16.73;;;10.10;;
6739;SDS011;3407;49.882;10.920;2022-12-05T16:50:33;13.60;;;9.33;;
6739;SDS011;3407;49.882;10.920;2022-12-05T16:55:29;14.03;;;9.10;;
6739;SDS011;3407;49.882;10.920;2022-12-05T17:00:29;14.47;;;9.00;;
6739;SDS011;3407;49.882;10.920;2022-12-05T17:05:25;12.87;;;9.17;;
6739;SDS011;3407;49.882;10.920;2022-12-05T17:10:21;16.97;;;10.67;;
6739;SDS011;3407;49.882;10.920;2022-12-05T17:15:17;14.23;;;9.47;;
6739;SDS011;3407;49.882;10.920;2022-12-05T17:20:13;13.43;;;8.40;;
6739;SDS011;3407;49.882;10.920;2022-12-05T17:25:15;10.43;;;7.40;;
6739;SDS011;3407;49.882;10.920;2022-12-05T17:30:14;13.23;;;8.53;;
6739;SDS011;3407;49.882;10.920;2022-12-05T17:35:11;14.17;;;9.60;;
6739;SDS011;3407;49.882;10.920;2022-12-05T17:40:09;11.63;;;8.50;;
6739;SDS011;3407;49.882;10.920;2022-12-05T17:45:07;11.97;;;8.30;;
6739;SDS011;3407;49.882;10.920;2022-12-05T17:50:05;13.33;;;8.17;;
6739;SDS011;3407;49.882;10.920;2022-12-05T17:55:05;11.57;;;8.10;;
6739;SDS011;3407;49.882;10.920;2022-12-05T18:00:02;9.73;;;7.30;;
6739;SDS011;3407;49.882;10.920;2022-12-05T18:04:57;8.33;;;7.03;;
6739;SDS011;3407;49.882;10.920;2022-12-05T18:09:53;11.33;;;8.13;;
6739;SDS011;3407;49.882;10.920;2022-12-05T18:14:49;13.93;;;8.00;;
6739;SDS011;3407;49.882;10.920;2022-12-05T18:19:44;10.73;;;8.00;;
6739;SDS011;3407;49.882;10.920;2022-12-05T18:24:40;9.70;;;7.47;;
6739;SDS011;3407;49.882;10.920;2022-12-05T18:29:35;11.87;;;6.90;;
6739;SDS011;3407;49.882;10.920;2022-12-05T18:34:31;10.77;;;7.57;;
6739;SDS011;3407;49.882;10.920;2022-12-05T18:39:26;13.13;;;8.13;;
6739;SDS011;3407;49.882;10.920;2022-12-05T18:44:22;12.10;;;7.73;;
6739;SDS011;3407;49.882;10.920;2022-12-05T18:49:18;10.80;;;7.77;;
6739;SDS011;3407;49.882;10.920;2022-12-05T18:54:13;13.73;;;8.07;;
6739;SDS011;3407;49.882;10.920;2022-12-05T18:59:13;9.57;;;7.50;;
6739;SDS011;3407;49.882;10.920;2022-12-05T19:04:10;13.00;;;8.17;;
6739;SDS011;3407;49.882;10.920;2022-12-05T19:09:10;12.60;;;8.07;;
6739;SDS011;3407;49.882;10.920;2022-12-05T19:14:09;11.30;;;8.30;;
6739;SDS011;3407;49.882;10.920;2022-12-05T19:19:07;9.20;;;7.10;;
6739;SDS011;3407;49.882;10.920;2022-12-05T19:24:05;9.60;;;7.70;;
6739;SDS011;3407;49.882;10.920;2022-12-05T19:29:02;14.03;;;9.03;;
6739;SDS011;3407;49.882;10.920;2022-12-05T19:33:59;11.00;;;7.77;;
6739;SDS011;3407;49.882;10.920;2022-12-05T19:38:56;13.37;;;9.50;;
6739;SDS011;3407;49.882;10.920;2022-12-05T19:43:52;11.33;;;7.80;;
6739;SDS011;3407;49.882;10.920;2022-12-05T19:48:48;8.90;;;7.30;;
6739;SDS011;3407;49.882;10.920;2022-12-05T19:53:44;10.10;;;7.53;;
6739;SDS011;3407;49.882;10.920;2022-12-05T19:58:40;11.27;;;8.27;;
6739;SDS011;3407;49.882;10.920;2022-12-05T20:03:36;13.10;;;9.00;;
6739;SDS011;3407;49.882;10.920;2022-12-05T20:08:32;15.40;;;9.13;;
6739;SDS011;3407;49.882;10.920;2022-12-05T20:13:29;11.53;;;8.00;;
6739;SDS011;3407;49.882;10.920;2022-12-05T20:18:25;10.30;;;7.77;;
6739;SDS011;3407;49.882;10.920;2022-12-05T20:23:20;11.13;;;8.23;;
6739;SDS011;3407;49.882;10.920;2022-12-05T20:28:16;16.40;;;11.00;;
6739;SDS011;3407;49.882;10.920;2022-12-05T20:33:12;19.97;;;11.03;;
6739;SDS011;3407;49.882;10.920;2022-12-05T20:38:07;17.07;;;11.93;;
6739;SDS011;3407;49.882;10.920;2022-12-05T20:43:03;12.73;;;9.67;;
6739;SDS011;3407;49.882;10.920;2022-12-05T20:47:58;13.20;;;8.63;;
6739;SDS011;3407;49.882;10.920;2022-12-05T20:52:54;10.13;;;8.00;;
6739;SDS011;3407;49.882;10.920;2022-12-05T20:57:49;11.37;;;8.30;;
6739;SDS011;3407;49.882;10.920;2022-12-05T21:02:45;11.47;;;8.63;;
6739;SDS011;3407;49.882;10.920;2022-12-05T21:07:40;11.53;;;9.20;;
6739;SDS011;3407;49.882;10.920;2022-12-05T21:12:36;15.33;;;9.57;;
6739;SDS011;3407;49.882;10.920;2022-12-05T21:17:31;17.33;;;12.47;;
6739;SDS011;3407;49.882;10.920;2022-12-05T21:22:27;15.87;;;10.50;;
6739;SDS011;3407;49.882;10.920;2022-12-05T21:27:22;16.40;;;10.73;;
6739;SDS011;3407;49.882;10.920;2022-12-05T21:32:18;17.97;;;10.17;;
6739;SDS011;3407;49.882;10.920;2022-12-05T21:37:13;16.53;;;10.33;;
6739;SDS011;3407;49.882;10.920;2022-12-05T21:42:09;14.73;;;9.77;;
6739;SDS011;3407;49.882;10.920;2022-12-05T21:47:04;14.67;;;10.17;;
6739;SDS011;3407;49.882;10.920;2022-12-05T21:52:00;16.10;;;10.23;;
6739;SDS011;3407;49.882;10.920;2022-12-05T21:56:55;16.10;;;10.37;;
6739;SDS011;3407;49.882;10.920;2022-12-05T22:01:51;18.37;;;10.23;;
6739;SDS011;3407;49.882;10.920;2022-12-05T22:06:46;15.23;;;9.63;;
6739;SDS011;3407;49.882;10.920;2022-12-05T22:11:42;14.97;;;9.87;;
6739;SDS011;3407;49.882;10.920;2022-12-05T22:16:38;13.17;;;9.80;;
6739;SDS011;3407;49.882;10.920;2022-12-05T22:21:33;15.27;;;10.27;;
6739;SDS011;3407;49.882;10.920;2022-12-05T22:26:29;16.43;;;9.87;;
6739;SDS011;3407;49.882;10.920;2022-12-05T22:31:24;15.73;;;10.10;;
6739;SDS011;3407;49.882;10.920;2022-12-05T22:36:20;15.10;;;9.83;;
6739;SDS011;3407;49.882;10.920;2022-12-05T22:41:18;13.17;;;9.70;;
6739;SDS011;3407;49.882;10.920;2022-12-05T22:46:16;13.53;;;9.53;;
6739;SDS011;3407;49.882;10.920;2022-12-05T22:51:14;16.27;;;9.53;;
6739;SDS011;3407;49.882;10.920;2022-12-05T22:56:12;16.93;;;10.63;;
6739;SDS011;3407;49.882;10.920;2022-12-05T23:06:09;13.20;;;9.20;;
6739;SDS011;3407;49.882;10.920;2022-12-05T23:11:06;14.20;;;9.30;;
6739;SDS011;3407;49.882;10.920;2022-12-05T23:16:06;12.87;;;8.37;;
6739;SDS011;3407;49.882;10.920;2022-12-05T23:21:02;10.43;;;8.07;;
6739;SDS011;3407;49.882;10.920;2022-12-05T23:25:57;14.13;;;8.20;;
6739;SDS011;3407;49.882;10.920;2022-12-05T23:30:53;12.07;;;8.50;;
6739;SDS011;3407;49.882;10.920;2022-12-05T23:35:52;10.00;;;7.80;;
6739;SDS011;3407;49.882;10.920;2022-12-05T23:41:21;10.40;;;8.20;;
6739;SDS011;3407;49.882;10.920;2022-12-05T23:46:11;12.63;;;8.17;;
6739;SDS011;3407;49.882;10.920;2022-12-05T23:51:09;9.47;;;7.33;;
6739;SDS011;3407;49.882;10.920;2022-12-05T23:56:09;10.33;;;7.83;;
